sensor_id;sensor_type;location;lat;lon;timestamp;temperature;humidity
46562;DHT22;32289;42.688;23.330;2024-01-30T00:00:42;-0.50;97.50
46562;DHT22;32289;42.688;23.330;2024-01-30T00:04:23;-0.60;98.40
46562;DHT22;32289;42.688;23.330;2024-01-30T00:08:04;-0.50;97.60
46562;DHT22;32289;42.688;23.330;2024-01-30T00:11:45;-0.70;97.70
46562;DHT22;32289;42.688;23.330;2024-01-30T00:15:28;-0.60;98.30
46562;DHT22;32289;42.688;23.330;2024-01-30T00:19:09;-0.70;97.60
46562;DHT22;32289;42.688;23.330;2024-01-30T00:22:49;-0.80;97.60
46562;DHT22;32289;42.688;23.330;2024-01-30T00:26:30;-0.80;97.90
46562;DHT22;32289;42.688;23.330;2024-01-30T00:30:11;-0.80;97.90
46562;DHT22;32289;42.688;23.330;2024-01-30T00:33:52;-0.90;98.10
46562;DHT22;32289;42.688;23.330;2024-01-30T00:37:33;-0.90;97.80
46562;DHT22;32289;42.688;23.330;2024-01-30T00:41:14;-0.90;97.90
46562;DHT22;32289;42.688;23.330;2024-01-30T00:44:55;-0.90;98.10
46562;DHT22;32289;42.688;23.330;2024-01-30T00:48:35;-0.90;98.80
46562;DHT22;32289;42.688;23.330;2024-01-30T00:52:16;-0.90;98.90
46562;DHT22;32289;42.688;23.330;2024-01-30T00:55:57;-0.90;99.10
46562;DHT22;32289;42.688;23.330;2024-01-30T00:59:37;-1.20;99.40
46562;DHT22;32289;42.688;23.330;2024-01-30T01:03:18;-1.20;99.90
46562;DHT22;32289;42.688;23.330;2024-01-30T01:06:58;-1.20;99.90
46562;DHT22;32289;42.688;23.330;2024-01-30T01:10:39;-1.30;99.90
46562;DHT22;32289;42.688;23.330;2024-01-30T01:14:20;-1.20;99.90
46562;DHT22;32289;42.688;23.330;2024-01-30T01:18:00;-1.20;99.90
46562;DHT22;32289;42.688;23.330;2024-01-30T01:21:41;-1.10;99.90
46562;DHT22;32289;42.688;23.330;2024-01-30T01:25:22;-1.20;99.90
46562;DHT22;32289;42.688;23.330;2024-01-30T01:29:02;-1.30;99.90
46562;DHT22;32289;42.688;23.330;2024-01-30T01:32:50;-1.30;99.90
46562;DHT22;32289;42.688;23.330;2024-01-30T01:36:35;-1.30;99.90
46562;DHT22;32289;42.688;23.330;2024-01-30T01:40:16;-1.10;99.90
46562;DHT22;32289;42.688;23.330;2024-01-30T01:43:56;-1.20;99.30
46562;DHT22;32289;42.688;23.330;2024-01-30T01:47:37;-1.30;99.90
46562;DHT22;32289;42.688;23.330;2024-01-30T01:51:18;-1.10;99.90
46562;DHT22;32289;42.688;23.330;2024-01-30T01:54:59;-1.10;99.70
46562;DHT22;32289;42.688;23.330;2024-01-30T01:58:41;-1.20;99.90
46562;DHT22;32289;42.688;23.330;2024-01-30T02:02:23;-1.20;99.80
46562;DHT22;32289;42.688;23.330;2024-01-30T02:06:04;-1.10;99.80
46562;DHT22;32289;42.688;23.330;2024-01-30T02:09:45;-1.20;99.30
46562;DHT22;32289;42.688;23.330;2024-01-30T02:13:25;-1.10;99.90
46562;DHT22;32289;42.688;23.330;2024-01-30T02:17:06;-1.10;99.90
46562;DHT22;32289;42.688;23.330;2024-01-30T02:20:47;-1.20;99.30
46562;DHT22;32289;42.688;23.330;2024-01-30T02:24:28;-1.20;99.60
46562;DHT22;32289;42.688;23.330;2024-01-30T02:28:13;-1.10;99.20
46562;DHT22;32289;42.688;23.330;2024-01-30T02:31:54;-1.10;99.20
46562;DHT22;32289;42.688;23.330;2024-01-30T02:35:34;-1.10;98.80
46562;DHT22;32289;42.688;23.330;2024-01-30T02:39:15;-1.10;98.70
46562;DHT22;32289;42.688;23.330;2024-01-30T02:42:57;-1.20;98.40
46562;DHT22;32289;42.688;23.330;2024-01-30T02:46:38;-1.00;98.30
46562;DHT22;32289;42.688;23.330;2024-01-30T02:50:19;-1.10;98.40
46562;DHT22;32289;42.688;23.330;2024-01-30T02:53:59;-1.00;98.40
46562;DHT22;32289;42.688;23.330;2024-01-30T02:57:40;-0.90;98.30
46562;DHT22;32289;42.688;23.330;2024-01-30T03:01:21;-0.90;97.60
46562;DHT22;32289;42.688;23.330;2024-01-30T03:05:01;-1.00;97.00
46562;DHT22;32289;42.688;23.330;2024-01-30T03:08:44;-1.00;96.60
46562;DHT22;32289;42.688;23.330;2024-01-30T03:12:25;-1.00;97.10
46562;DHT22;32289;42.688;23.330;2024-01-30T03:16:06;-0.90;97.10
46562;DHT22;32289;42.688;23.330;2024-01-30T03:19:46;-1.00;96.70
46562;DHT22;32289;42.688;23.330;2024-01-30T03:23:27;-1.00;96.10
46562;DHT22;32289;42.688;23.330;2024-01-30T03:27:08;-0.80;97.40
46562;DHT22;32289;42.688;23.330;2024-01-30T03:30:49;-0.90;96.20
46562;DHT22;32289;42.688;23.330;2024-01-30T03:34:29;-1.00;95.30
46562;DHT22;32289;42.688;23.330;2024-01-30T03:38:10;-0.90;95.60
46562;DHT22;32289;42.688;23.330;2024-01-30T03:41:51;-0.80;94.40
46562;DHT22;32289;42.688;23.330;2024-01-30T03:45:32;-0.90;93.70
46562;DHT22;32289;42.688;23.330;2024-01-30T03:49:12;-0.80;93.20
46562;DHT22;32289;42.688;23.330;2024-01-30T03:52:53;-0.80;94.40
46562;DHT22;32289;42.688;23.330;2024-01-30T03:56:33;-0.80;93.70
46562;DHT22;32289;42.688;23.330;2024-01-30T04:00:14;-0.90;94.00
46562;DHT22;32289;42.688;23.330;2024-01-30T04:03:55;-1.10;93.50
46562;DHT22;32289;42.688;23.330;2024-01-30T04:07:36;-1.10;93.50
46562;DHT22;32289;42.688;23.330;2024-01-30T04:11:18;-1.10;93.40
46562;DHT22;32289;42.688;23.330;2024-01-30T04:15:00;-1.20;93.80
46562;DHT22;32289;42.688;23.330;2024-01-30T04:18:40;-1.20;94.50
46562;DHT22;32289;42.688;23.330;2024-01-30T04:22:21;-1.30;94.60
46562;DHT22;32289;42.688;23.330;2024-01-30T04:26:02;-1.00;95.90
46562;DHT22;32289;42.688;23.330;2024-01-30T04:29:43;-1.20;95.60
46562;DHT22;32289;42.688;23.330;2024-01-30T04:33:24;-1.20;95.40
46562;DHT22;32289;42.688;23.330;2024-01-30T04:37:05;-1.20;95.30
46562;DHT22;32289;42.688;23.330;2024-01-30T04:40:45;-1.20;95.60
46562;DHT22;32289;42.688;23.330;2024-01-30T04:44:26;-1.30;96.10
46562;DHT22;32289;42.688;23.330;2024-01-30T04:48:07;-1.40;96.70
46562;DHT22;32289;42.688;23.330;2024-01-30T04:51:48;-1.40;96.90
46562;DHT22;32289;42.688;23.330;2024-01-30T04:55:28;-1.30;97.30
46562;DHT22;32289;42.688;23.330;2024-01-30T04:59:09;-1.30;96.70
46562;DHT22;32289;42.688;23.330;2024-01-30T05:02:49;-1.50;96.40
46562;DHT22;32289;42.688;23.330;2024-01-30T05:06:30;-1.50;97.40
46562;DHT22;32289;42.688;23.330;2024-01-30T05:10:11;-1.40;96.40
46562;DHT22;32289;42.688;23.330;2024-01-30T05:13:52;-1.40;96.40
46562;DHT22;32289;42.688;23.330;2024-01-30T05:17:32;-1.30;95.20
46562;DHT22;32289;42.688;23.330;2024-01-30T05:21:14;-1.30;95.60
46562;DHT22;32289;42.688;23.330;2024-01-30T05:24:55;-1.40;96.50
46562;DHT22;32289;42.688;23.330;2024-01-30T05:28:36;-1.50;96.60
46562;DHT22;32289;42.688;23.330;2024-01-30T05:32:16;-1.40;96.40
46562;DHT22;32289;42.688;23.330;2024-01-30T05:35:57;-1.50;96.70
46562;DHT22;32289;42.688;23.330;2024-01-30T05:39:38;-1.40;97.20
46562;DHT22;32289;42.688;23.330;2024-01-30T05:43:18;-1.50;97.70
46562;DHT22;32289;42.688;23.330;2024-01-30T05:46:59;-1.60;98.00
46562;DHT22;32289;42.688;23.330;2024-01-30T05:50:40;-1.60;97.90
46562;DHT22;32289;42.688;23.330;2024-01-30T05:54:20;-1.60;99.60
46562;DHT22;32289;42.688;23.330;2024-01-30T05:58:01;-1.80;97.40
46562;DHT22;32289;42.688;23.330;2024-01-30T06:01:48;-1.80;97.40
46562;DHT22;32289;42.688;23.330;2024-01-30T06:05:29;-1.80;96.80
46562;DHT22;32289;42.688;23.330;2024-01-30T06:09:10;-1.60;98.40
46562;DHT22;32289;42.688;23.330;2024-01-30T06:12:50;-1.60;96.90
46562;DHT22;32289;42.688;23.330;2024-01-30T06:16:31;-1.90;96.70
46562;DHT22;32289;42.688;23.330;2024-01-30T06:20:12;-1.70;98.30
46562;DHT22;32289;42.688;23.330;2024-01-30T06:23:52;-1.50;97.30
46562;DHT22;32289;42.688;23.330;2024-01-30T06:27:33;-1.60;97.00
46562;DHT22;32289;42.688;23.330;2024-01-30T06:31:13;-1.30;98.90
46562;DHT22;32289;42.688;23.330;2024-01-30T06:34:54;-1.40;97.90
46562;DHT22;32289;42.688;23.330;2024-01-30T06:38:35;-1.40;96.90
46562;DHT22;32289;42.688;23.330;2024-01-30T06:42:15;-1.30;93.00
46562;DHT22;32289;42.688;23.330;2024-01-30T06:45:56;-1.30;95.00
46562;DHT22;32289;42.688;23.330;2024-01-30T06:49:37;-1.20;93.60
46562;DHT22;32289;42.688;23.330;2024-01-30T06:53:18;-1.10;93.20
46562;DHT22;32289;42.688;23.330;2024-01-30T06:56:59;-1.20;92.30
46562;DHT22;32289;42.688;23.330;2024-01-30T07:00:40;-1.20;92.50
46562;DHT22;32289;42.688;23.330;2024-01-30T07:04:21;-1.20;90.60
46562;DHT22;32289;42.688;23.330;2024-01-30T07:08:02;-1.20;90.90
46562;DHT22;32289;42.688;23.330;2024-01-30T07:11:42;-0.80;90.70
46562;DHT22;32289;42.688;23.330;2024-01-30T07:15:23;-0.60;90.50
46562;DHT22;32289;42.688;23.330;2024-01-30T07:19:03;-0.60;88.40
46562;DHT22;32289;42.688;23.330;2024-01-30T07:22:44;-0.50;86.50
46562;DHT22;32289;42.688;23.330;2024-01-30T07:26:25;-0.60;84.50
46562;DHT22;32289;42.688;23.330;2024-01-30T07:30:06;-0.50;89.00
46562;DHT22;32289;42.688;23.330;2024-01-30T07:33:47;-0.50;82.60
46562;DHT22;32289;42.688;23.330;2024-01-30T07:37:27;-0.40;82.40
46562;DHT22;32289;42.688;23.330;2024-01-30T07:41:09;-0.30;80.60
46562;DHT22;32289;42.688;23.330;2024-01-30T07:44:49;-0.30;77.00
46562;DHT22;32289;42.688;23.330;2024-01-30T07:48:30;-0.30;77.80
46562;DHT22;32289;42.688;23.330;2024-01-30T07:52:11;-0.10;76.40
46562;DHT22;32289;42.688;23.330;2024-01-30T07:55:52;0.00;76.40
46562;DHT22;32289;42.688;23.330;2024-01-30T07:59:33;0.10;75.00
46562;DHT22;32289;42.688;23.330;2024-01-30T08:03:13;-0.20;75.20
46562;DHT22;32289;42.688;23.330;2024-01-30T08:06:56;0.10;75.60
46562;DHT22;32289;42.688;23.330;2024-01-30T08:10:37;0.30;74.70
46562;DHT22;32289;42.688;23.330;2024-01-30T08:14:18;0.50;72.30
46562;DHT22;32289;42.688;23.330;2024-01-30T08:17:59;0.60;72.40
46562;DHT22;32289;42.688;23.330;2024-01-30T08:21:39;0.30;73.20
46562;DHT22;32289;42.688;23.330;2024-01-30T08:25:20;1.00;70.10
46562;DHT22;32289;42.688;23.330;2024-01-30T08:29:02;2.90;59.20
46562;DHT22;32289;42.688;23.330;2024-01-30T08:32:42;5.40;52.50
46562;DHT22;32289;42.688;23.330;2024-01-30T08:36:23;6.50;51.10
46562;DHT22;32289;42.688;23.330;2024-01-30T08:40:04;8.30;48.90
46562;DHT22;32289;42.688;23.330;2024-01-30T08:43:45;10.20;42.30
46562;DHT22;32289;42.688;23.330;2024-01-30T08:47:25;8.90;43.40
46562;DHT22;32289;42.688;23.330;2024-01-30T08:51:06;9.30;44.20
46562;DHT22;32289;42.688;23.330;2024-01-30T08:54:48;6.20;46.00
46562;DHT22;32289;42.688;23.330;2024-01-30T08:58:29;2.40;56.80
46562;DHT22;32289;42.688;23.330;2024-01-30T09:02:10;2.30;60.50
46562;DHT22;32289;42.688;23.330;2024-01-30T09:05:53;2.20;60.40
46562;DHT22;32289;42.688;23.330;2024-01-30T09:09:34;5.20;57.90
46562;DHT22;32289;42.688;23.330;2024-01-30T09:13:14;3.40;56.80
46562;DHT22;32289;42.688;23.330;2024-01-30T09:16:55;3.40;58.20
46562;DHT22;32289;42.688;23.330;2024-01-30T09:20:36;5.50;57.80
46562;DHT22;32289;42.688;23.330;2024-01-30T09:24:16;8.60;50.10
46562;DHT22;32289;42.688;23.330;2024-01-30T09:27:57;7.80;49.50
46562;DHT22;32289;42.688;23.330;2024-01-30T09:31:38;7.80;49.80
46562;DHT22;32289;42.688;23.330;2024-01-30T09:35:18;7.90;48.80
46562;DHT22;32289;42.688;23.330;2024-01-30T09:38:59;7.80;50.10
46562;DHT22;32289;42.688;23.330;2024-01-30T09:42:43;5.80;50.20
46562;DHT22;32289;42.688;23.330;2024-01-30T09:46:26;7.70;48.60
46562;DHT22;32289;42.688;23.330;2024-01-30T09:50:15;4.60;52.10
46562;DHT22;32289;42.688;23.330;2024-01-30T09:53:56;3.00;58.20
46562;DHT22;32289;42.688;23.330;2024-01-30T09:57:37;2.20;60.20
46562;DHT22;32289;42.688;23.330;2024-01-30T10:01:18;4.00;57.50
46562;DHT22;32289;42.688;23.330;2024-01-30T10:05:00;4.50;55.40
46562;DHT22;32289;42.688;23.330;2024-01-30T10:08:42;6.70;52.70
46562;DHT22;32289;42.688;23.330;2024-01-30T10:12:23;4.10;54.50
46562;DHT22;32289;42.688;23.330;2024-01-30T10:16:06;3.30;57.90
46562;DHT22;32289;42.688;23.330;2024-01-30T10:19:47;2.80;59.10
46562;DHT22;32289;42.688;23.330;2024-01-30T10:23:28;2.40;60.70
46562;DHT22;32289;42.688;23.330;2024-01-30T10:27:09;2.60;61.00
46562;DHT22;32289;42.688;23.330;2024-01-30T10:30:58;5.20;54.90
46562;DHT22;32289;42.688;23.330;2024-01-30T10:34:40;5.10;53.30
46562;DHT22;32289;42.688;23.330;2024-01-30T10:38:21;5.10;53.20
46562;DHT22;32289;42.688;23.330;2024-01-30T10:42:05;3.80;57.40
46562;DHT22;32289;42.688;23.330;2024-01-30T10:45:48;4.00;56.00
46562;DHT22;32289;42.688;23.330;2024-01-30T10:49:30;5.10;54.40
46562;DHT22;32289;42.688;23.330;2024-01-30T10:53:11;5.00;53.80
46562;DHT22;32289;42.688;23.330;2024-01-30T10:56:53;4.50;54.60
46562;DHT22;32289;42.688;23.330;2024-01-30T11:00:34;4.30;54.30
46562;DHT22;32289;42.688;23.330;2024-01-30T11:04:15;3.30;56.10
46562;DHT22;32289;42.688;23.330;2024-01-30T11:07:55;4.40;55.70
46562;DHT22;32289;42.688;23.330;2024-01-30T11:11:56;4.50;54.70
46562;DHT22;32289;42.688;23.330;2024-01-30T11:15:40;4.90;54.50
46562;DHT22;32289;42.688;23.330;2024-01-30T11:19:25;4.30;54.00
46562;DHT22;32289;42.688;23.330;2024-01-30T11:23:06;5.10;53.60
46562;DHT22;32289;42.688;23.330;2024-01-30T11:26:49;4.30;54.80
46562;DHT22;32289;42.688;23.330;2024-01-30T11:30:32;5.40;53.90
46562;DHT22;32289;42.688;23.330;2024-01-30T11:34:14;5.50;52.90
46562;DHT22;32289;42.688;23.330;2024-01-30T11:37:58;4.30;54.90
46562;DHT22;32289;42.688;23.330;2024-01-30T11:41:39;3.90;57.00
46562;DHT22;32289;42.688;23.330;2024-01-30T11:45:21;4.40;55.00
46562;DHT22;32289;42.688;23.330;2024-01-30T11:49:02;4.50;55.10
46562;DHT22;32289;42.688;23.330;2024-01-30T11:52:43;4.10;56.50
46562;DHT22;32289;42.688;23.330;2024-01-30T11:56:26;3.60;56.70
46562;DHT22;32289;42.688;23.330;2024-01-30T12:00:14;2.50;59.80
46562;DHT22;32289;42.688;23.330;2024-01-30T12:03:55;2.50;61.30
46562;DHT22;32289;42.688;23.330;2024-01-30T12:07:37;2.30;60.60
46562;DHT22;32289;42.688;23.330;2024-01-30T12:11:18;2.30;62.40
46562;DHT22;32289;42.688;23.330;2024-01-30T12:14:58;2.00;63.20
46562;DHT22;32289;42.688;23.330;2024-01-30T12:18:39;2.20;63.50
46562;DHT22;32289;42.688;23.330;2024-01-30T12:22:20;3.20;59.90
46562;DHT22;32289;42.688;23.330;2024-01-30T12:26:01;2.60;61.20
46562;DHT22;32289;42.688;23.330;2024-01-30T12:29:44;3.20;60.90
46562;DHT22;32289;42.688;23.330;2024-01-30T12:33:26;4.20;57.70
46562;DHT22;32289;42.688;23.330;2024-01-30T12:37:08;3.80;57.80
46562;DHT22;32289;42.688;23.330;2024-01-30T12:40:55;3.90;58.10
46562;DHT22;32289;42.688;23.330;2024-01-30T12:44:36;3.90;58.20
46562;DHT22;32289;42.688;23.330;2024-01-30T12:48:17;3.40;59.10
46562;DHT22;32289;42.688;23.330;2024-01-30T12:51:58;3.80;57.60
46562;DHT22;32289;42.688;23.330;2024-01-30T12:55:39;3.20;58.00
46562;DHT22;32289;42.688;23.330;2024-01-30T12:59:20;3.60;57.80
46562;DHT22;32289;42.688;23.330;2024-01-30T13:03:00;3.50;58.70
46562;DHT22;32289;42.688;23.330;2024-01-30T13:06:42;2.80;59.30
46562;DHT22;32289;42.688;23.330;2024-01-30T13:10:23;3.30;59.00
46562;DHT22;32289;42.688;23.330;2024-01-30T13:14:03;3.50;59.60
46562;DHT22;32289;42.688;23.330;2024-01-30T13:17:44;3.00;61.30
46562;DHT22;32289;42.688;23.330;2024-01-30T13:21:28;3.60;59.40
46562;DHT22;32289;42.688;23.330;2024-01-30T13:25:08;3.50;59.40
46562;DHT22;32289;42.688;23.330;2024-01-30T13:28:49;2.80;61.70
46562;DHT22;32289;42.688;23.330;2024-01-30T13:32:30;3.20;60.80
46562;DHT22;32289;42.688;23.330;2024-01-30T13:36:11;2.20;62.20
46562;DHT22;32289;42.688;23.330;2024-01-30T13:39:52;2.80;62.50
46562;DHT22;32289;42.688;23.330;2024-01-30T13:43:33;2.80;62.30
46562;DHT22;32289;42.688;23.330;2024-01-30T13:47:13;2.70;62.50
46562;DHT22;32289;42.688;23.330;2024-01-30T13:50:54;2.60;63.20
46562;DHT22;32289;42.688;23.330;2024-01-30T13:54:35;2.70;62.80
46562;DHT22;32289;42.688;23.330;2024-01-30T13:58:16;2.40;63.70
46562;DHT22;32289;42.688;23.330;2024-01-30T14:01:57;2.50;65.00
46562;DHT22;32289;42.688;23.330;2024-01-30T14:05:37;2.40;64.60
46562;DHT22;32289;42.688;23.330;2024-01-30T14:09:18;2.20;64.80
46562;DHT22;32289;42.688;23.330;2024-01-30T14:12:59;2.30;65.40
46562;DHT22;32289;42.688;23.330;2024-01-30T14:16:39;2.60;65.80
46562;DHT22;32289;42.688;23.330;2024-01-30T14:20:20;2.00;65.40
46562;DHT22;32289;42.688;23.330;2024-01-30T14:24:01;1.80;67.00
46562;DHT22;32289;42.688;23.330;2024-01-30T14:27:42;2.00;66.80
46562;DHT22;32289;42.688;23.330;2024-01-30T14:31:23;1.70;67.50
46562;DHT22;32289;42.688;23.330;2024-01-30T14:35:05;1.70;67.90
46562;DHT22;32289;42.688;23.330;2024-01-30T14:38:45;1.30;69.30
46562;DHT22;32289;42.688;23.330;2024-01-30T14:42:26;1.10;70.80
46562;DHT22;32289;42.688;23.330;2024-01-30T14:46:08;1.20;71.20
46562;DHT22;32289;42.688;23.330;2024-01-30T14:49:49;1.00;72.80
46562;DHT22;32289;42.688;23.330;2024-01-30T14:53:30;1.50;72.20
46562;DHT22;32289;42.688;23.330;2024-01-30T14:57:10;1.30;71.00
46562;DHT22;32289;42.688;23.330;2024-01-30T15:00:51;1.10;73.60
46562;DHT22;32289;42.688;23.330;2024-01-30T15:04:32;1.20;72.60
46562;DHT22;32289;42.688;23.330;2024-01-30T15:08:13;1.20;72.00
46562;DHT22;32289;42.688;23.330;2024-01-30T15:11:53;1.10;72.80
46562;DHT22;32289;42.688;23.330;2024-01-30T15:15:34;0.90;73.30
46562;DHT22;32289;42.688;23.330;2024-01-30T15:19:15;1.00;74.30
46562;DHT22;32289;42.688;23.330;2024-01-30T15:22:55;0.80;74.60
46562;DHT22;32289;42.688;23.330;2024-01-30T15:26:36;0.70;76.40
46562;DHT22;32289;42.688;23.330;2024-01-30T15:30:17;0.60;78.00
46562;DHT22;32289;42.688;23.330;2024-01-30T15:33:59;0.60;78.80
46562;DHT22;32289;42.688;23.330;2024-01-30T15:37:40;0.60;79.00
46562;DHT22;32289;42.688;23.330;2024-01-30T15:41:21;0.40;79.60
46562;DHT22;32289;42.688;23.330;2024-01-30T15:45:02;0.30;81.90
46562;DHT22;32289;42.688;23.330;2024-01-30T15:48:42;0.30;82.60
46562;DHT22;32289;42.688;23.330;2024-01-30T15:52:23;0.30;82.60
46562;DHT22;32289;42.688;23.330;2024-01-30T15:56:04;0.20;82.90
46562;DHT22;32289;42.688;23.330;2024-01-30T15:59:45;0.00;85.00
46562;DHT22;32289;42.688;23.330;2024-01-30T16:03:25;0.00;86.00
46562;DHT22;32289;42.688;23.330;2024-01-30T16:07:06;0.10;86.90
46562;DHT22;32289;42.688;23.330;2024-01-30T16:10:47;0.00;87.30
46562;DHT22;32289;42.688;23.330;2024-01-30T16:14:27;-0.10;87.40
46562;DHT22;32289;42.688;23.330;2024-01-30T16:18:08;-0.10;88.50
46562;DHT22;32289;42.688;23.330;2024-01-30T16:21:49;-0.10;88.40
46562;DHT22;32289;42.688;23.330;2024-01-30T16:25:29;0.00;89.10
46562;DHT22;32289;42.688;23.330;2024-01-30T16:29:10;-0.20;90.10
46562;DHT22;32289;42.688;23.330;2024-01-30T16:32:51;-0.30;91.00
46562;DHT22;32289;42.688;23.330;2024-01-30T16:36:32;-0.30;90.40
46562;DHT22;32289;42.688;23.330;2024-01-30T16:40:13;-0.50;91.30
46562;DHT22;32289;42.688;23.330;2024-01-30T16:43:55;-0.40;91.50
46562;DHT22;32289;42.688;23.330;2024-01-30T16:47:37;-0.50;91.60
46562;DHT22;32289;42.688;23.330;2024-01-30T16:51:17;-0.50;91.80
46562;DHT22;32289;42.688;23.330;2024-01-30T16:54:58;-0.50;91.40
46562;DHT22;32289;42.688;23.330;2024-01-30T16:58:39;-0.50;92.20
46562;DHT22;32289;42.688;23.330;2024-01-30T17:02:19;-0.60;91.90
46562;DHT22;32289;42.688;23.330;2024-01-30T17:06:00;-0.60;92.60
46562;DHT22;32289;42.688;23.330;2024-01-30T17:09:45;-0.60;92.70
46562;DHT22;32289;42.688;23.330;2024-01-30T17:13:26;-0.60;93.00
46562;DHT22;32289;42.688;23.330;2024-01-30T17:17:07;-0.50;92.60
46562;DHT22;32289;42.688;23.330;2024-01-30T17:20:49;-0.40;92.70
46562;DHT22;32289;42.688;23.330;2024-01-30T17:24:30;-0.70;93.60
46562;DHT22;32289;42.688;23.330;2024-01-30T17:28:11;-0.80;93.80
46562;DHT22;32289;42.688;23.330;2024-01-30T17:31:53;-0.70;94.40
46562;DHT22;32289;42.688;23.330;2024-01-30T17:35:34;-0.60;94.00
46562;DHT22;32289;42.688;23.330;2024-01-30T17:39:15;-0.90;94.20
46562;DHT22;32289;42.688;23.330;2024-01-30T17:42:56;-1.00;94.50
46562;DHT22;32289;42.688;23.330;2024-01-30T17:46:37;-0.50;96.50
46562;DHT22;32289;42.688;23.330;2024-01-30T17:50:18;-0.90;94.50
46562;DHT22;32289;42.688;23.330;2024-01-30T17:53:58;-1.00;95.10
46562;DHT22;32289;42.688;23.330;2024-01-30T17:57:39;-0.90;94.80
46562;DHT22;32289;42.688;23.330;2024-01-30T18:01:20;-1.10;94.80
46562;DHT22;32289;42.688;23.330;2024-01-30T18:05:02;-0.90;95.30
46562;DHT22;32289;42.688;23.330;2024-01-30T18:08:44;-0.80;95.00
46562;DHT22;32289;42.688;23.330;2024-01-30T18:12:24;-0.80;94.80
46562;DHT22;32289;42.688;23.330;2024-01-30T18:16:06;-1.00;94.80
46562;DHT22;32289;42.688;23.330;2024-01-30T18:19:47;-0.90;94.50
46562;DHT22;32289;42.688;23.330;2024-01-30T18:23:28;-1.10;95.10
46562;DHT22;32289;42.688;23.330;2024-01-30T18:27:09;-1.00;95.10
46562;DHT22;32289;42.688;23.330;2024-01-30T18:30:49;-0.90;95.10
46562;DHT22;32289;42.688;23.330;2024-01-30T18:34:30;-0.90;95.10
46562;DHT22;32289;42.688;23.330;2024-01-30T18:38:11;-0.80;95.40
46562;DHT22;32289;42.688;23.330;2024-01-30T18:41:51;-0.80;95.60
46562;DHT22;32289;42.688;23.330;2024-01-30T18:45:32;-0.80;95.30
46562;DHT22;32289;42.688;23.330;2024-01-30T18:49:13;-0.80;95.10
46562;DHT22;32289;42.688;23.330;2024-01-30T18:52:54;-0.90;94.90
46562;DHT22;32289;42.688;23.330;2024-01-30T18:56:34;-1.00;95.30
46562;DHT22;32289;42.688;23.330;2024-01-30T19:00:15;-1.10;96.00
46562;DHT22;32289;42.688;23.330;2024-01-30T19:03:56;-1.20;97.50
46562;DHT22;32289;42.688;23.330;2024-01-30T19:07:36;-1.20;96.90
46562;DHT22;32289;42.688;23.330;2024-01-30T19:11:18;-1.40;97.10
46562;DHT22;32289;42.688;23.330;2024-01-30T19:14:59;-1.10;97.40
46562;DHT22;32289;42.688;23.330;2024-01-30T19:18:40;-1.20;96.90
46562;DHT22;32289;42.688;23.330;2024-01-30T19:22:20;-1.30;97.00
46562;DHT22;32289;42.688;23.330;2024-01-30T19:26:01;-1.40;97.30
46562;DHT22;32289;42.688;23.330;2024-01-30T19:29:45;-1.40;97.90
46562;DHT22;32289;42.688;23.330;2024-01-30T19:33:26;-1.30;97.80
46562;DHT22;32289;42.688;23.330;2024-01-30T19:37:06;-1.30;97.10
46562;DHT22;32289;42.688;23.330;2024-01-30T19:40:47;-1.30;97.10
46562;DHT22;32289;42.688;23.330;2024-01-30T19:44:28;-1.20;98.50
46562;DHT22;32289;42.688;23.330;2024-01-30T19:48:09;-1.30;96.90
46562;DHT22;32289;42.688;23.330;2024-01-30T19:51:49;-1.50;97.00
46562;DHT22;32289;42.688;23.330;2024-01-30T19:55:30;-1.30;97.20
46562;DHT22;32289;42.688;23.330;2024-01-30T19:59:12;-1.40;97.00
46562;DHT22;32289;42.688;23.330;2024-01-30T20:02:52;-1.40;98.10
46562;DHT22;32289;42.688;23.330;2024-01-30T20:06:33;-1.60;97.20
46562;DHT22;32289;42.688;23.330;2024-01-30T20:10:14;-1.60;98.40
46562;DHT22;32289;42.688;23.330;2024-01-30T20:13:54;-1.50;99.10
46562;DHT22;32289;42.688;23.330;2024-01-30T20:17:35;-1.60;99.60
46562;DHT22;32289;42.688;23.330;2024-01-30T20:21:16;-1.40;99.80
46562;DHT22;32289;42.688;23.330;2024-01-30T20:24:56;-1.60;99.80
46562;DHT22;32289;42.688;23.330;2024-01-30T20:28:38;-1.70;99.90
46562;DHT22;32289;42.688;23.330;2024-01-30T20:32:19;-1.70;99.90
46562;DHT22;32289;42.688;23.330;2024-01-30T20:35:59;-1.90;99.90
46562;DHT22;32289;42.688;23.330;2024-01-30T20:39:41;-1.90;99.90
46562;DHT22;32289;42.688;23.330;2024-01-30T20:43:22;-1.90;99.90
46562;DHT22;32289;42.688;23.330;2024-01-30T20:47:03;-1.60;99.80
46562;DHT22;32289;42.688;23.330;2024-01-30T20:50:43;-1.70;99.90
46562;DHT22;32289;42.688;23.330;2024-01-30T20:54:24;-1.80;99.90
46562;DHT22;32289;42.688;23.330;2024-01-30T20:58:05;-1.80;99.90
46562;DHT22;32289;42.688;23.330;2024-01-30T21:01:46;-2.00;99.90
46562;DHT22;32289;42.688;23.330;2024-01-30T21:05:26;-2.00;99.90
46562;DHT22;32289;42.688;23.330;2024-01-30T21:09:07;-2.00;99.90
46562;DHT22;32289;42.688;23.330;2024-01-30T21:12:48;-2.10;99.90
46562;DHT22;32289;42.688;23.330;2024-01-30T21:16:29;-2.00;99.90
46562;DHT22;32289;42.688;23.330;2024-01-30T21:20:11;-2.10;99.90
46562;DHT22;32289;42.688;23.330;2024-01-30T21:23:52;-2.20;99.90
46562;DHT22;32289;42.688;23.330;2024-01-30T21:27:33;-2.10;99.90
46562;DHT22;32289;42.688;23.330;2024-01-30T21:31:14;-2.10;99.90
46562;DHT22;32289;42.688;23.330;2024-01-30T21:34:56;-2.10;99.90
46562;DHT22;32289;42.688;23.330;2024-01-30T21:38:37;-2.20;99.90
46562;DHT22;32289;42.688;23.330;2024-01-30T21:42:19;-2.30;99.90
46562;DHT22;32289;42.688;23.330;2024-01-30T21:46:00;-2.30;99.90
46562;DHT22;32289;42.688;23.330;2024-01-30T21:49:40;-2.30;99.90
46562;DHT22;32289;42.688;23.330;2024-01-30T21:53:21;-2.40;99.90
46562;DHT22;32289;42.688;23.330;2024-01-30T21:57:02;-2.60;99.90
46562;DHT22;32289;42.688;23.330;2024-01-30T22:00:45;-2.60;99.90
46562;DHT22;32289;42.688;23.330;2024-01-30T22:04:26;-2.70;99.90
46562;DHT22;32289;42.688;23.330;2024-01-30T22:08:07;-2.80;99.90
46562;DHT22;32289;42.688;23.330;2024-01-30T22:11:48;-2.80;99.90
46562;DHT22;32289;42.688;23.330;2024-01-30T22:15:29;-2.80;99.90
46562;DHT22;32289;42.688;23.330;2024-01-30T22:19:12;-2.90;99.90
46562;DHT22;32289;42.688;23.330;2024-01-30T22:22:53;-3.00;99.90
46562;DHT22;32289;42.688;23.330;2024-01-30T22:26:44;-3.20;99.90
46562;DHT22;32289;42.688;23.330;2024-01-30T22:30:24;-3.30;99.90
46562;DHT22;32289;42.688;23.330;2024-01-30T22:34:05;-3.40;99.90
46562;DHT22;32289;42.688;23.330;2024-01-30T22:37:45;-3.40;99.90
46562;DHT22;32289;42.688;23.330;2024-01-30T22:41:26;-3.30;99.90
46562;DHT22;32289;42.688;23.330;2024-01-30T22:45:08;-3.20;99.90
46562;DHT22;32289;42.688;23.330;2024-01-30T22:48:49;-3.30;99.90
46562;DHT22;32289;42.688;23.330;2024-01-30T22:52:30;-3.20;99.90
46562;DHT22;32289;42.688;23.330;2024-01-30T22:56:11;-3.20;99.90
46562;DHT22;32289;42.688;23.330;2024-01-30T22:59:51;-3.20;99.90
46562;DHT22;32289;42.688;23.330;2024-01-30T23:03:35;-3.20;99.90